Time;durP1;ratioP1;P1;durP2;ratioP2;P2;SDS_P1;SDS_P2;PMS_P1;PMS_P2;Temp;Humidity;BMP_temperature;BMP_pressure;BME280_temperature;BME280_humidity;BME280_pressure;Samples;Min_cycle;Max_cycle;Signal;HPM_P1;HPM_P2
2023/11/06 00:01:22;;;;;;;5.47;1.30;;;;;;;9.04;100.00;99339.44;5131170;27;20393;-35
2023/11/06 00:03:47;;;;;;;3.43;1.13;;;;;;;9.06;100.00;99345.38;5130834;27;20076;-35
2023/11/06 00:06:13;;;;;;;4.68;1.05;;;;;;;9.05;100.00;99340.25;5131063;27;20031;-34
2023/11/06 00:08:38;;;;;;;5.53;1.30;;;;;;;9.05;100.00;99337.56;5122200;27;20032;-34
2023/11/06 00:11:03;;;;;;;4.90;1.20;;;;;;;9.03;100.00;99344.03;5116778;28;20486;-35
2023/11/06 00:13:29;;;;;;;3.97;1.00;;;;;;;9.02;100.00;99345.06;5116890;28;20483;-35
2023/11/06 00:15:54;;;;;;;4.90;0.90;;;;;;;8.98;100.00;99338.59;5116588;28;20399;-35
2023/11/06 00:18:19;;;;;;;5.00;0.97;;;;;;;9.02;100.00;99353.16;5117358;28;20327;-34
2023/11/06 00:20:45;;;;;;;6.43;1.53;;;;;;;9.00;100.00;99363.41;5117057;28;20019;-34
2023/11/06 00:23:10;;;;;;;2.27;1.07;;;;;;;8.97;100.00;99353.13;5116680;28;20265;-34
2023/11/06 00:25:37;;;;;;;5.47;1.00;;;;;;;8.94;100.00;99352.84;5116685;28;20036;-35
2023/11/06 00:28:03;;;;;;;3.53;1.10;;;;;;;8.95;100.00;99355.28;5116339;28;20035;-35
2023/11/06 00:30:28;;;;;;;5.22;1.13;;;;;;;8.95;100.00;99368.75;5117167;28;20467;-34
2023/11/06 00:32:54;;;;;;;4.13;0.87;;;;;;;8.94;100.00;99377.13;5116850;28;20434;-35
2023/11/06 00:35:19;;;;;;;1.15;0.50;;;;;;;8.90;100.00;99376.00;5117042;28;20016;-35
2023/11/06 00:37:45;;;;;;;2.38;0.47;;;;;;;8.87;100.00;99388.09;5116346;28;20138;-35
2023/11/06 00:40:10;;;;;;;1.52;0.60;;;;;;;8.87;100.00;99389.97;5116397;28;20070;-35
2023/11/06 00:42:36;;;;;;;3.95;1.35;;;;;;;8.85;100.00;99394.81;5116269;28;20035;-35
2023/11/06 00:45:02;;;;;;;1.88;0.60;;;;;;;8.81;100.00;99394.50;5116581;28;20057;-34
2023/11/06 00:47:27;;;;;;;2.33;0.80;;;;;;;8.81;100.00;99399.91;5116757;28;20035;-35
2023/11/06 00:49:52;;;;;;;1.10;0.47;;;;;;;8.73;100.00;99384.16;5117063;28;20023;-35
2023/11/06 00:52:19;;;;;;;4.20;0.77;;;;;;;8.75;100.00;99403.59;5116533;27;20383;-35
2023/11/06 00:54:45;;;;;;;;;;;;;;;8.77;100.00;99406.84;5116402;28;20281;-34
2023/11/06 00:57:10;;;;;;;2.78;0.73;;;;;;;8.72;100.00;99404.91;5116460;28;19922;-35
2023/11/06 00:59:36;;;;;;;1.52;0.70;;;;;;;8.65;100.00;99403.50;5116094;28;20061;-34
2023/11/06 01:02:01;;;;;;;2.88;0.80;;;;;;;8.62;100.00;99401.31;5116520;28;20149;-35
2023/11/06 01:04:28;;;;;;;1.60;0.70;;;;;;;8.65;100.00;99415.09;5115564;28;20024;-35
2023/11/06 01:06:54;;;;;;;4.50;1.08;;;;;;;8.59;100.00;99397.25;5116676;28;20042;-35
2023/11/06 01:09:19;;;;;;;4.70;0.97;;;;;;;8.63;100.00;99409.13;5131699;27;20028;-35
2023/11/06 01:11:48;;;;;;;3.20;0.80;;;;;;;8.61;100.00;99419.34;5115800;28;20015;-34
2023/11/06 01:14:14;;;;;;;4.07;1.10;;;;;;;8.57;100.00;99407.44;5115715;28;20024;-35
2023/11/06 01:16:39;;;;;;;3.85;1.17;;;;;;;8.58;100.00;99427.94;5116445;28;20367;-34
2023/11/06 01:19:05;;;;;;;4.97;1.40;;;;;;;8.57;100.00;99426.31;5115483;28;20023;-34
2023/11/06 01:21:31;;;;;;;3.97;1.10;;;;;;;8.58;100.00;99427.94;5114730;28;20414;-35
2023/11/06 01:23:57;;;;;;;;;;;;;;;8.59;100.00;99434.97;5115880;28;20027;-34
2023/11/06 01:26:22;;;;;;;4.15;1.10;;;;;;;8.57;100.00;99444.38;5115425;28;19961;-35
2023/11/06 01:28:48;;;;;;;3.25;1.15;;;;;;;8.48;100.00;99428.63;5115415;28;20023;-34
2023/11/06 01:31:13;;;;;;;4.53;1.03;;;;;;;8.59;100.00;99444.91;5115975;28;20110;-34
2023/11/06 01:33:38;;;;;;;5.77;1.50;;;;;;;8.61;100.00;99448.19;5115322;28;20035;-34
2023/11/06 01:36:04;;;;;;;3.10;1.30;;;;;;;8.59;100.00;99456.53;5115536;28;20049;-35
2023/11/06 01:38:30;;;;;;;3.90;1.17;;;;;;;8.60;100.00;99460.84;5115136;28;20054;-35
2023/11/06 01:40:56;;;;;;;3.85;1.10;;;;;;;8.60;100.00;99462.72;5115200;28;20031;-34
2023/11/06 01:43:25;;;;;;;5.10;1.40;;;;;;;8.60;100.00;99468.13;5115106;28;20025;-35
2023/11/06 01:45:51;;;;;;;5.03;1.45;;;;;;;8.62;100.00;99472.19;5115861;28;20028;-35
2023/11/06 01:48:17;;;;;;;4.82;1.42;;;;;;;8.61;100.00;99469.75;5115010;28;20432;-34
2023/11/06 01:50:43;;;;;;;8.13;1.40;;;;;;;8.60;100.00;99478.91;5115238;28;20528;-34
2023/11/06 01:53:11;;;;;;;10.77;3.83;;;;;;;8.60;100.00;99478.91;5115175;28;20067;-34
2023/11/06 01:55:42;;;;;;;4.07;1.45;;;;;;;8.61;100.00;99484.03;5115433;28;20034;-35
2023/11/06 01:58:11;;;;;;;4.25;1.20;;;;;;;8.59;100.00;99482.63;5114757;28;20043;-34
2023/11/06 02:00:37;;;;;;;4.93;1.40;;;;;;;8.58;100.00;99487.22;5114744;28;20110;-34
2023/11/06 02:03:05;;;;;;;3.42;1.20;;;;;;;8.54;100.00;99482.56;5113775;28;20082;-34
2023/11/06 02:05:31;;;;;;;3.67;1.33;;;;;;;8.55;100.00;99489.63;5115185;28;20039;-34
2023/11/06 02:07:57;;;;;;;6.22;1.92;;;;;;;8.48;100.00;99482.50;5113403;28;20024;-34
2023/11/06 02:10:23;;;;;;;5.25;1.27;;;;;;;8.50;100.00;99485.78;5114594;28;20024;-35
2023/11/06 02:12:48;;;;;;;4.13;1.10;;;;;;;8.52;100.00;99496.31;5115426;28;20367;-34
2023/11/06 02:15:14;;;;;;;5.20;1.10;;;;;;;8.54;100.00;99501.44;5114914;28;20023;-34
2023/11/06 02:17:41;;;;;;;3.33;1.10;;;;;;;8.47;100.00;99498.94;5114626;28;20035;-34
2023/11/06 02:20:08;;;;;;;5.60;1.38;;;;;;;8.39;100.00;99489.41;5115018;28;20031;-35
2023/11/06 02:22:33;;;;;;;3.83;1.10;;;;;;;8.45;100.00;99515.38;5114354;28;20383;-34
2023/11/06 02:25:00;;;;;;;4.37;1.63;;;;;;;8.46;100.00;99516.16;5114707;28;20024;-34
2023/11/06 02:27:28;;;;;;;3.88;1.60;;;;;;;8.40;100.00;99509.91;5114289;28;20041;-35
2023/11/06 02:29:53;;;;;;;2.38;0.95;;;;;;;8.37;100.00;99510.41;5114297;28;20115;-34
2023/11/06 02:32:19;;;;;;;3.53;0.77;;;;;;;8.44;100.00;99505.66;5114128;28;20106;-35
2023/11/06 02:34:45;;;;;;;3.33;1.15;;;;;;;8.44;100.00;99521.81;5114218;28;20026;-35
2023/11/06 02:37:10;;;;;;;4.05;1.00;;;;;;;8.42;100.00;99529.31;5114689;28;20069;-34
2023/11/06 02:39:37;;;;;;;4.55;1.10;;;;;;;8.37;100.00;99523.84;5114676;28;20436;-35
2023/11/06 02:42:03;;;;;;;4.18;1.10;;;;;;;8.37;100.00;99523.06;5114673;28;20038;-34
2023/11/06 02:44:29;;;;;;;3.25;1.10;;;;;;;8.42;100.00;99532.00;5114049;28;20034;-35
2023/11/06 02:46:55;;;;;;;3.17;0.90;;;;;;;8.41;100.00;99541.16;5114011;28;20031;-34
2023/11/06 02:49:20;;;;;;;5.70;1.00;;;;;;;8.36;100.00;99534.88;5113732;28;20399;-34
2023/11/06 02:51:45;;;;;;;4.03;0.90;;;;;;;8.36;100.00;99542.94;5114365;28;20027;-34
2023/11/06 02:54:11;;;;;;;3.67;1.03;;;;;;;8.36;100.00;99542.94;5113970;28;20480;-35
2023/11/06 02:56:37;;;;;;;5.22;1.02;;;;;;;8.35;100.00;99554.78;5113877;28;20101;-35
2023/11/06 02:59:04;;;;;;;3.45;0.75;;;;;;;8.27;100.00;99545.22;5114278;28;20085;-34
2023/11/06 03:01:29;;;;;;;4.40;1.05;;;;;;;8.35;100.00;99550.22;5114734;28;20024;-34
2023/11/06 03:03:55;;;;;;;3.17;0.90;;;;;;;8.28;100.00;99549.56;5113596;28;20015;-34
2023/11/06 03:06:20;;;;;;;3.35;0.80;;;;;;;8.07;100.00;99523.41;5114209;28;20024;-35
2023/11/06 03:08:46;;;;;;;2.97;0.87;;;;;;;8.27;100.00;99550.63;5114412;28;20033;-34
2023/11/06 03:11:12;;;;;;;4.63;0.80;;;;;;;8.25;100.00;99558.16;5114171;28;20614;-34
2023/11/06 03:13:37;;;;;;;6.72;1.20;;;;;;;8.32;100.00;99574.13;5113505;28;20039;-34
2023/11/06 03:16:03;;;;;;;2.40;0.90;;;;;;;8.31;100.00;99572.50;5114050;28;20032;-34
2023/11/06 03:18:28;;;;;;;3.38;1.10;;;;;;;8.26;100.00;99567.84;5113795;28;20531;-34
2023/11/06 03:20:54;;;;;;;7.67;1.83;;;;;;;8.32;100.00;99585.72;5113865;28;20038;-35
2023/11/06 03:23:19;;;;;;;3.08;0.80;;;;;;;8.29;100.00;99591.56;5114004;28;20055;-35
2023/11/06 03:25:44;;;;;;;1.60;0.60;;;;;;;8.31;100.00;99592.16;5113865;28;20028;-35
2023/11/06 03:28:10;;;;;;;2.50;0.80;;;;;;;8.29;100.00;99586.19;5114081;28;20110;-35
2023/11/06 03:30:35;;;;;;;3.27;0.97;;;;;;;8.26;100.00;99589.41;5114283;28;20262;-35
2023/11/06 03:33:00;;;;;;;3.60;0.90;;;;;;;8.15;100.00;99584.91;5112242;28;20041;-34
2023/11/06 03:35:26;;;;;;;2.87;0.90;;;;;;;8.20;100.00;99599.28;5114007;28;20632;-35
2023/11/06 03:37:51;;;;;;;2.73;0.87;;;;;;;8.17;100.00;99598.94;5113318;28;20024;-35
2023/11/06 03:40:17;;;;;;;3.60;1.13;;;;;;;8.20;100.00;99603.84;5113883;28;20019;-35
2023/11/06 03:42:42;;;;;;;3.30;1.10;;;;;;;8.20;100.00;99620.00;5113813;28;20372;-35
2023/11/06 03:45:09;;;;;;;3.07;1.00;;;;;;;8.17;100.00;99604.34;5117838;28;20035;-35
2023/11/06 03:47:34;;;;;;;2.78;1.00;;;;;;;8.18;100.00;99611.34;5117046;28;20027;-34
2023/11/06 03:49:59;;;;;;;2.60;0.87;;;;;;;8.19;100.00;99619.16;5117966;28;20054;-35
2023/11/06 03:52:25;;;;;;;2.17;0.90;;;;;;;8.20;100.00;99620.00;5117326;28;20491;-35
2023/11/06 03:54:51;;;;;;;2.67;0.80;;;;;;;8.19;100.00;99624.56;5117538;28;20048;-34
2023/11/06 03:57:16;;;;;;;3.22;0.88;;;;;;;8.18;100.00;99632.88;5117428;28;20040;-34
2023/11/06 03:59:42;;;;;;;2.77;0.90;;;;;;;8.16;100.00;99624.25;5117224;28;20034;-34
2023/11/06 04:02:07;;;;;;;3.43;0.97;;;;;;;8.17;100.00;99632.06;5117935;28;20023;-35
2023/11/06 04:04:32;;;;;;;3.63;0.90;;;;;;;8.14;100.00;99626.34;5117057;28;20062;-36
2023/11/06 04:06:58;;;;;;;3.07;1.13;;;;;;;8.13;100.00;99630.94;5116991;28;20023;-35
2023/11/06 04:09:24;;;;;;;4.07;1.52;;;;;;;8.16;100.00;99635.84;5117037;28;20055;-34
2023/11/06 04:11:49;;;;;;;3.40;1.00;;;;;;;8.13;100.00;99640.88;5116771;28;20513;-35
2023/11/06 04:14:14;;;;;;;2.90;1.17;;;;;;;8.11;100.00;99637.63;5116915;28;20414;-35
2023/11/06 04:16:40;;;;;;;2.60;0.80;;;;;;;8.09;100.00;99635.16;5117094;28;20035;-34
2023/11/06 04:19:05;;;;;;;4.37;0.93;;;;;;;8.13;100.00;99643.56;5116813;27;20027;-35
2023/11/06 04:21:30;;;;;;;2.28;0.98;;;;;;;8.11;100.00;99645.72;5117102;28;20055;-35
2023/11/06 04:23:56;;;;;;;3.50;0.90;;;;;;;8.11;100.00;99643.00;5116704;28;20070;-35
2023/11/06 04:26:22;;;;;;;3.20;0.80;;;;;;;8.07;100.00;99652.63;5117054;28;20028;-34
2023/11/06 04:28:47;;;;;;;3.35;0.95;;;;;;;8.02;100.00;99658.75;5116831;28;20456;-35
2023/11/06 04:31:13;;;;;;;4.43;0.93;;;;;;;8.05;100.00;99658.25;5116334;28;20031;-34
2023/11/06 04:33:39;;;;;;;2.80;0.93;;;;;;;8.06;100.00;99673.38;5116569;27;20024;-34
2023/11/06 04:36:05;;;;;;;3.03;0.80;;;;;;;8.06;100.00;99661.78;5116728;28;20024;-35
2023/11/06 04:38:31;;;;;;;5.15;1.40;;;;;;;8.05;100.00;99674.41;5116976;28;20024;-34
2023/11/06 04:40:56;;;;;;;7.37;1.67;;;;;;;8.00;100.00;99675.16;5116472;28;20028;-34
2023/11/06 04:43:22;;;;;;;5.13;1.30;;;;;;;7.95;100.00;99666.13;5116017;28;20396;-34
2023/11/06 04:45:48;;;;;;;4.68;1.00;;;;;;;8.09;100.00;99693.59;5116625;28;20031;-34
2023/11/06 04:48:13;;;;;;;3.30;1.02;;;;;;;8.07;100.00;99685.75;5115922;27;20035;-34
2023/11/06 04:50:39;;;;;;;2.37;0.67;;;;;;;8.06;100.00;99678.75;5116549;28;20153;-34
2023/11/06 04:53:04;;;;;;;4.32;0.90;;;;;;;8.14;100.00;99685.59;5116156;28;20371;-34
2023/11/06 04:55:29;;;;;;;3.97;1.03;;;;;;;8.09;100.00;99688.19;5116570;28;20039;-35
2023/11/06 04:57:55;;;;;;;3.27;1.00;;;;;;;8.11;100.00;99694.19;5115769;28;20308;-34
2023/11/06 05:00:20;;;;;;;4.23;1.83;;;;;;;8.09;100.00;99696.28;5116346;28;20382;-35
2023/11/06 05:02:45;;;;;;;4.32;1.00;;;;;;;8.08;100.00;99698.16;5115991;28;20024;-35
2023/11/06 05:05:11;;;;;;;3.77;1.40;;;;;;;7.93;100.00;99674.47;5116524;27;20034;-34
2023/11/06 05:07:37;;;;;;;3.17;1.00;;;;;;;8.05;100.00;99700.50;5116125;28;20038;-34
2023/11/06 05:10:05;;;;;;;7.13;2.08;;;;;;;8.03;100.00;99697.25;5116109;28;20396;-34
2023/11/06 05:12:31;;;;;;;3.92;1.00;;;;;;;8.04;100.00;99707.78;5115722;28;20062;-34
2023/11/06 05:14:57;;;;;;;;;;;;;;;8.08;100.00;99713.50;5116231;28;20066;-35
2023/11/06 05:17:22;;;;;;;5.22;1.00;;;;;;;8.05;100.00;99712.09;5115605;28;19916;-34
2023/11/06 05:19:47;;;;;;;2.50;1.03;;;;;;;8.01;100.00;99700.19;5115909;27;20391;-34
2023/11/06 05:22:13;;;;;;;6.77;1.43;;;;;;;8.11;100.00;99708.44;5116489;28;20028;-35
2023/11/06 05:24:41;;;;;;;4.63;1.13;;;;;;;8.14;100.00;99709.81;5115285;28;20088;-34
2023/11/06 05:27:07;;;;;;;4.30;1.30;;;;;;;8.17;100.00;99712.03;5115576;28;20062;-35
2023/11/06 05:29:33;;;;;;;7.30;1.60;;;;;;;8.20;100.00;99719.66;5115218;28;20055;-34
2023/11/06 05:31:58;;;;;;;6.57;1.92;;;;;;;8.20;100.00;99717.78;5116247;28;20027;-34
2023/11/06 05:34:24;;;;;;;5.28;1.50;;;;;;;8.18;100.00;99710.97;5115664;28;20024;-35
2023/11/06 05:36:49;;;;;;;9.87;1.70;;;;;;;8.21;100.00;99723.97;5115232;28;20074;-34
2023/11/06 05:39:15;;;;;;;7.47;2.03;;;;;;;8.24;100.00;99731.53;5115454;28;20278;-34
2023/11/06 05:41:40;;;;;;;6.28;1.67;;;;;;;8.27;100.00;99728.38;5115788;28;20023;-34
2023/11/06 05:44:05;;;;;;;7.77;1.60;;;;;;;8.29;100.00;99736.22;5115719;27;20066;-34
2023/11/06 05:46:31;;;;;;;8.10;1.80;;;;;;;8.29;100.00;99731.63;5115130;28;20028;-34
2023/11/06 05:48:56;;;;;;;6.80;2.03;;;;;;;8.33;100.00;99732.78;5115133;28;20053;-34
2023/11/06 05:51:22;;;;;;;8.83;1.90;;;;;;;8.28;100.00;99724.63;5114752;28;20027;-34
2023/11/06 05:53:47;;;;;;;7.43;2.42;;;;;;;8.41;100.00;99732.44;5113387;28;20179;-34
2023/11/06 05:56:12;;;;;;;9.07;2.10;;;;;;;8.42;100.00;99742.13;5114511;27;20102;-34
2023/11/06 05:58:37;;;;;;;7.27;2.40;;;;;;;8.38;100.00;99737.47;5114870;28;20023;-34
2023/11/06 06:01:04;;;;;;;9.73;2.50;;;;;;;8.48;100.00;99761.91;5115186;28;20034;-34
2023/11/06 06:03:30;;;;;;;6.25;1.67;;;;;;;8.49;100.00;99758.97;5114760;28;20033;-34
2023/11/06 06:05:55;;;;;;;9.07;2.57;;;;;;;8.50;100.00;99759.78;5115096;28;20110;-34
2023/11/06 06:08:21;;;;;;;9.35;1.90;;;;;;;8.52;100.00;99765.75;5114648;28;20756;-34
2023/11/06 06:10:46;;;;;;;8.37;2.43;;;;;;;8.52;100.00;99769.25;5114736;28;20035;-35
2023/11/06 06:13:12;;;;;;;7.07;2.10;;;;;;;8.49;100.00;99758.97;5115132;28;20281;-38
2023/11/06 06:15:37;;;;;;;9.60;2.80;;;;;;;8.57;100.00;99768.53;5114909;28;20055;-37
2023/11/06 06:18:02;;;;;;;4.93;1.90;;;;;;;8.60;100.00;99767.22;5114516;28;20024;-34
2023/11/06 06:20:28;;;;;;;8.07;2.30;;;;;;;8.61;100.00;99776.94;5115071;28;20028;-35
2023/11/06 06:22:53;;;;;;;8.37;2.17;;;;;;;8.60;100.00;99769.94;5114491;28;20114;-35
2023/11/06 06:25:19;;;;;;;10.32;2.60;;;;;;;8.50;100.00;99747.13;5114661;28;20352;-35
2023/11/06 06:27:44;;;;;;;8.40;2.20;;;;;;;8.55;100.00;99773.34;5114378;28;20031;-34
2023/11/06 06:30:11;;;;;;;7.47;2.23;;;;;;;8.46;100.00;99755.94;5114724;28;20088;-35
2023/11/06 06:32:36;;;;;;;9.32;2.20;;;;;;;8.44;100.00;99749.97;5114778;28;20422;-34
2023/11/06 06:35:04;;;;;;;13.50;2.80;;;;;;;8.47;100.00;99766.47;5115164;28;20042;-35
2023/11/06 06:37:30;;;;;;;10.65;2.97;;;;;;;8.47;100.00;99771.84;5114424;28;20077;-34
2023/11/06 06:39:55;;;;;;;9.95;2.38;;;;;;;8.47;100.00;99769.16;5114787;28;20059;-34
2023/11/06 06:42:20;;;;;;;10.77;2.63;;;;;;;8.28;100.00;99751.56;5114467;28;20477;-34
2023/11/06 06:44:46;;;;;;;7.07;2.13;;;;;;;8.43;100.00;99780.66;5113900;28;20488;-34
2023/11/06 06:47:11;;;;;;;7.37;2.10;;;;;;;8.41;100.00;99777.41;5113139;28;20019;-34
2023/11/06 06:49:40;;;;;;;8.10;2.50;;;;;;;8.37;100.00;99771.69;5114099;28;20257;-35
2023/11/06 06:52:08;;;;;;;8.32;2.45;;;;;;;8.34;100.00;99788.28;5114888;28;20265;-34
2023/11/06 06:54:35;;;;;;;11.20;2.95;;;;;;;8.30;100.00;99787.16;5114742;28;20065;-34
2023/11/06 06:57:00;;;;;;;;;;;;;;;8.36;100.00;99788.91;5114141;28;20043;-34
2023/11/06 06:59:26;;;;;;;10.10;2.35;;;;;;;8.31;100.00;99793.38;5113897;28;20382;-34
2023/11/06 07:01:52;;;;;;;8.45;2.63;;;;;;;8.31;100.00;99806.84;5113870;28;20028;-34
2023/11/06 07:04:18;;;;;;;11.10;2.60;;;;;;;8.29;100.00;99809.75;5113853;28;20056;-34
2023/11/06 07:06:43;;;;;;;6.40;2.10;;;;;;;8.27;100.00;99818.06;5114146;28;20110;-34
2023/11/06 07:09:09;;;;;;;9.93;2.80;;;;;;;8.29;100.00;99822.41;5112975;28;20024;-34
2023/11/06 07:11:35;;;;;;;11.38;2.25;;;;;;;8.25;100.00;99816.69;5114166;28;20028;-34
2023/11/06 07:14:00;;;;;;;6.20;1.77;;;;;;;8.18;100.00;99811.44;5113825;28;20484;-34
2023/11/06 07:16:26;;;;;;;7.70;1.73;;;;;;;8.22;100.00;99812.59;5113763;28;20054;-34
2023/11/06 07:18:51;;;;;;;6.90;2.10;;;;;;;8.27;100.00;99838.81;5115752;28;20031;-34
2023/11/06 07:21:19;;;;;;;9.48;2.47;;;;;;;8.24;100.00;99841.97;5117943;28;20028;-34
2023/11/06 07:23:45;;;;;;;8.05;2.35;;;;;;;8.28;100.00;99840.44;5117584;28;20055;-34
2023/11/06 07:26:10;;;;;;;8.00;1.87;;;;;;;8.31;100.00;99853.44;5117848;28;20412;-34
2023/11/06 07:28:36;;;;;;;6.70;1.73;;;;;;;8.33;100.00;99848.63;5118399;28;20391;-34
2023/11/06 07:31:02;;;;;;;9.93;1.83;;;;;;;8.34;100.00;99842.16;5117544;28;20494;-34
2023/11/06 07:33:27;;;;;;;8.18;1.60;;;;;;;8.40;100.00;99854.72;5118016;28;20085;-34
2023/11/06 07:35:52;;;;;;;7.80;2.00;;;;;;;8.36;100.00;99839.25;5117762;28;20031;-34
2023/11/06 07:38:18;;;;;;;9.85;2.58;;;;;;;8.47;100.00;99857.25;5117528;28;20281;-34
2023/11/06 07:40:44;;;;;;;8.45;1.90;;;;;;;8.54;100.00;99862.50;5118145;28;20042;-34
2023/11/06 07:43:09;;;;;;;6.75;2.40;;;;;;;8.55;100.00;99866.84;5117502;28;20023;-34
2023/11/06 07:45:34;;;;;;;6.13;1.93;;;;;;;8.47;100.00;99847.31;5118069;28;20024;-34
2023/11/06 07:48:03;;;;;;;10.40;2.17;;;;;;;8.57;100.00;99868.22;5117641;28;20715;-35
2023/11/06 07:50:29;;;;;;;7.47;1.92;;;;;;;8.56;100.00;99852.31;5117046;28;20031;-35
2023/11/06 07:52:56;;;;;;;10.63;1.88;;;;;;;8.65;100.00;99865.16;5116809;28;20409;-34
2023/11/06 07:55:22;;;;;;;10.10;2.90;;;;;;;8.71;100.00;99858.78;5116888;28;20024;-34
2023/11/06 07:57:47;;;;;;;8.13;2.20;;;;;;;8.81;100.00;99868.94;5116753;28;20051;-34
2023/11/06 08:00:13;;;;;;;11.40;2.38;;;;;;;8.91;100.00;99866.41;5117168;28;20455;-35
2023/11/06 08:02:40;;;;;;;9.30;2.72;;;;;;;8.89;100.00;99849.66;5117562;28;20028;-35
2023/11/06 08:05:08;;;;;;;11.27;2.83;;;;;;;9.00;100.00;99873.03;5117322;28;20070;-35
2023/11/06 08:07:34;;;;;;;12.10;2.83;;;;;;;9.05;100.00;99874.19;5116914;28;20110;-34
2023/11/06 08:10:00;;;;;;;7.50;2.28;;;;;;;9.05;100.00;99871.50;5117839;27;20375;-34
2023/11/06 08:12:25;;;;;;;13.90;3.40;;;;;;;9.03;100.00;99874.44;5116949;28;20026;-34
2023/11/06 08:14:50;;;;;;;9.00;1.70;;;;;;;8.97;100.00;99873.50;5116853;27;20103;-34
2023/11/06 08:17:16;;;;;;;9.57;2.20;;;;;;;9.02;100.00;99889.78;5116526;28;20280;-34
2023/11/06 08:19:41;;;;;;;9.45;2.33;;;;;;;9.07;100.00;99882.84;5117323;28;20078;-34
2023/11/06 08:22:08;;;;;;;11.68;3.17;;;;;;;9.08;100.00;99881.78;5117290;28;20039;-34
2023/11/06 08:24:34;;;;;;;13.38;2.72;;;;;;;9.09;100.00;99886.94;5116731;28;20053;-34
2023/11/06 08:26:59;;;;;;;10.03;2.10;;;;;;;9.18;100.00;99898.16;5116446;28;20468;-34
2023/11/06 08:29:24;;;;;;;11.32;2.17;;;;;;;9.14;100.00;99892.41;5116434;28;20505;-34
2023/11/06 08:31:50;;;;;;;13.23;2.33;;;;;;;9.22;100.00;99908.22;5116629;28;20128;-34
2023/11/06 08:34:15;;;;;;;15.90;2.60;;;;;;;9.25;100.00;99896.09;5116760;28;20031;-34
2023/11/06 08:36:44;;;;;;;10.23;2.30;;;;;;;9.21;100.00;99903.03;5116492;28;20447;-34
2023/11/06 08:39:10;;;;;;;8.73;2.20;;;;;;;9.23;100.00;99903.63;5116417;28;20031;-34
2023/11/06 08:41:35;;;;;;;9.53;2.90;;;;;;;9.31;100.00;99915.88;5116324;28;20035;-34
2023/11/06 08:44:00;;;;;;;11.87;3.67;;;;;;;9.28;100.00;99917.19;5116384;28;20304;-34
2023/11/06 08:46:26;;;;;;;11.07;2.57;;;;;;;9.27;100.00;99912.84;5116901;28;20418;-34
2023/11/06 08:48:51;;;;;;;11.52;3.13;;;;;;;9.33;100.00;99930.78;5116176;28;20110;-34
2023/11/06 08:51:17;;;;;;;14.60;3.00;;;;;;;9.37;100.00;99914.88;5116821;28;20028;-34
2023/11/06 08:53:42;;;;;;;8.00;2.20;;;;;;;9.38;100.00;99920.06;5115884;28;20024;-34
2023/11/06 08:56:08;;;;;;;8.35;2.53;;;;;;;9.38;100.00;99909.25;5116127;28;20257;-34
2023/11/06 08:58:36;;;;;;;12.50;2.50;;;;;;;9.47;100.00;99921.28;5116363;28;20058;-34
2023/11/06 09:01:02;;;;;;;11.43;3.05;;;;;;;9.46;100.00;99930.41;5116291;28;20031;-34
2023/11/06 09:03:28;;;;;;;12.20;3.20;;;;;;;9.45;100.00;99914.47;5116427;28;20042;-34
2023/11/06 09:05:53;;;;;;;11.87;2.53;;;;;;;9.51;100.00;99927.78;5116481;28;20043;-34
2023/11/06 09:08:19;;;;;;;10.23;2.67;;;;;;;9.53;100.00;99933.78;5115829;28;20043;-34
2023/11/06 09:10:44;;;;;;;9.63;2.42;;;;;;;9.49;100.00;99929.94;5115541;28;20427;-34
2023/11/06 09:13:11;;;;;;;7.97;2.35;;;;;;;9.58;100.00;99954.66;5115751;28;20032;-34
2023/11/06 09:15:38;;;;;;;12.48;2.83;;;;;;;9.51;100.00;99938.59;5116496;27;20019;-34
2023/11/06 09:18:04;;;;;;;13.10;3.42;;;;;;;9.58;100.00;99951.94;5115260;27;20080;-34
2023/11/06 09:20:30;;;;;;;9.18;2.00;;;;;;;9.59;100.00;99955.47;5116218;28;20031;-34
2023/11/06 09:22:55;;;;;;;12.27;2.37;;;;;;;9.58;100.00;99951.94;5115282;28;20034;-34
2023/11/06 09:25:21;;;;;;;9.87;2.43;;;;;;;9.61;100.00;99961.41;5116169;28;20019;-34
2023/11/06 09:27:47;;;;;;;10.65;2.03;;;;;;;9.61;100.00;99964.13;5115370;28;20031;-34
2023/11/06 09:30:12;;;;;;;11.87;2.53;;;;;;;9.59;100.00;99953.56;5115499;28;20031;-34
2023/11/06 09:32:38;;;;;;;10.85;2.60;;;;;;;9.63;100.00;99952.03;5115067;28;20027;-34
2023/11/06 09:35:04;;;;;;;8.57;2.33;;;;;;;9.74;100.00;99955.69;5115344;28;20380;-34
2023/11/06 09:37:32;;;;;;;11.80;3.00;;;;;;;9.79;100.00;99953.06;5115210;28;20031;-34
2023/11/06 09:39:57;;;;;;;9.00;3.00;;;;;;;9.73;100.00;99957.56;5115061;28;20067;-34
2023/11/06 09:42:25;;;;;;;8.82;2.22;;;;;;;9.77;100.00;99963.31;5114606;28;20031;-34
2023/11/06 09:44:50;;;;;;;10.45;2.58;;;;;;;9.83;100.00;99961.50;5115388;28;20134;-34
2023/11/06 09:47:16;;;;;;;11.77;1.98;;;;;;;9.80;100.00;99968.19;5115441;28;20122;-34
2023/11/06 09:49:58;;;;;;;11.07;2.58;;;;;;;9.84;100.00;99971.22;5115082;28;20024;-34
2023/11/06 09:52:26;;;;;;;8.93;2.25;;;;;;;9.87;100.00;99978.84;5115028;28;20102;-34
2023/11/06 09:54:53;;;;;;;13.32;2.90;;;;;;;9.83;100.00;99980.41;5114926;28;20391;-34
2023/11/06 09:57:19;;;;;;;9.27;2.28;;;;;;;9.79;100.00;99978.19;5114560;28;20047;-34
2023/11/06 09:59:47;;;;;;;9.90;2.60;;;;;;;9.83;100.00;99988.50;5115181;28;20024;-34
2023/11/06 10:02:12;;;;;;;10.95;2.50;;;;;;;9.83;100.00;99999.28;5115141;28;20040;-34
2023/11/06 10:04:38;;;;;;;12.23;3.00;;;;;;;9.74;100.00;99988.09;5115121;28;20028;-34
2023/11/06 10:07:04;;;;;;;10.05;2.70;;;;;;;9.79;100.00;100004.38;5114793;28;20030;-34
2023/11/06 10:09:30;;;;;;;8.65;2.13;;;;;;;9.77;100.00;100003.81;5114688;28;20395;-34
2023/11/06 10:12:14;;;;;;;9.43;2.80;;;;;;;9.79;100.00;100017.88;5115559;28;20085;-34
2023/11/06 10:14:40;;;;;;;7.68;2.65;;;;;;;9.77;100.00;100003.81;5114567;27;20024;-34
2023/11/06 10:17:06;;;;;;;7.57;2.38;;;;;;;9.73;100.00;100005.34;5114803;28;20073;-34
2023/11/06 10:19:34;;;;;;;11.65;2.80;;;;;;;9.83;100.00;100015.50;5114472;28;20023;-34
2023/11/06 10:22:14;;;;;;;15.25;3.85;;;;;;;9.90;100.00;100025.06;5114453;28;20031;-34
2023/11/06 10:24:49;;;;;;;11.57;2.30;;;;;;;9.92;100.00;100020.25;5114414;28;20020;-34
2023/11/06 10:27:26;;;;;;;12.50;3.30;;;;;;;10.00;100.00;100016.28;5114429;28;20024;-34
2023/11/06 10:30:04;;;;;;;10.80;2.80;;;;;;;10.05;100.00;100016.38;5114134;28;20143;-34
2023/11/06 10:32:30;;;;;;;11.43;2.63;;;;;;;10.06;100.00;100013.44;5115157;28;20065;-34
2023/11/06 10:35:09;;;;;;;9.45;2.15;;;;;;;9.99;100.00;99996.56;5114248;28;20024;-34
2023/11/06 10:37:42;;;;;;;8.18;2.65;;;;;;;10.17;100.00;100008.19;5114485;28;20046;-34
2023/11/06 10:40:13;;;;;;;8.23;2.13;;;;;;;10.30;100.00;100000.56;5113246;28;20027;-34
2023/11/06 10:42:48;;;;;;;10.98;2.42;;;;;;;10.42;100.00;100003.16;5113916;28;20024;-34
2023/11/06 10:45:18;;;;;;;11.25;2.60;;;;;;;10.47;100.00;100010.50;5114715;28;20027;-34
2023/11/06 10:47:53;;;;;;;12.50;2.53;;;;;;;10.54;100.00;100014.69;5114137;28;20105;-34
2023/11/06 10:50:24;;;;;;;8.07;2.50;;;;;;;10.54;100.00;100020.09;5113802;28;20016;-34
2023/11/06 10:52:54;;;;;;;10.15;2.75;;;;;;;10.53;100.00;100020.31;5114686;28;20024;-34
2023/11/06 10:55:24;;;;;;;9.52;2.30;;;;;;;10.53;100.00;100015.72;5114074;28;20023;-34
2023/11/06 10:57:54;;;;;;;9.38;2.60;;;;;;;10.57;100.00;100026.84;5115017;28;20040;-34
2023/11/06 11:00:21;;;;;;;7.85;2.50;;;;;;;10.51;100.00;100017.88;5113596;28;20020;-34
2023/11/06 11:02:54;;;;;;;13.57;3.55;;;;;;;10.55;100.00;100029.81;5113973;28;20502;-34
2023/11/06 11:05:24;;;;;;;6.72;2.10;;;;;;;10.57;100.00;100032.25;5114450;28;20348;-34
2023/11/06 11:07:50;;;;;;;8.93;2.65;;;;;;;10.58;100.00;100029.31;5113894;28;20434;-34
2023/11/06 11:10:18;;;;;;;8.93;3.17;;;;;;;10.58;100.00;100025.78;5113822;28;20028;-34
2023/11/06 11:12:46;;;;;;;7.20;2.00;;;;;;;10.58;100.00;100029.31;5114182;28;20038;-34
2023/11/06 11:15:12;;;;;;;6.88;2.45;;;;;;;10.62;100.00;100023.41;5114277;28;20101;-34
2023/11/06 11:17:38;;;;;;;12.43;2.47;;;;;;;10.68;100.00;100014.28;5113751;28;20180;-34
2023/11/06 11:20:07;;;;;;;8.00;2.03;;;;;;;10.73;100.00;100025.97;5113994;28;20024;-34
2023/11/06 11:23:10;;;;;;;9.63;3.25;;;;;;;10.76;100.00;100020.06;5114582;28;20146;-34
2023/11/06 11:25:59;;;;;;;7.28;1.90;;;;;;;10.75;100.00;100020.34;5113956;28;20039;-34
2023/11/06 11:28:26;;;;;;;8.77;2.40;;;;;;;10.75;100.00;100018.44;5114190;28;20020;-34